Terminal Aerodrome Forecast
Issued by NWS Wakefield, VA

Home | Current Version | Previous Version | Text Only | Print | Product List | Glossary On
Versions: 1 2 3 4 5 6 7 8 9 10 11 12 13 14 15 16 17 18 19 20 21 22 23 24 25 26 27 28 29 30 31 32 33 34
000
FTUS41 KAKQ 312327
TAFSBY
TAF
KSBY 312327Z 0100/0124 20008KT P6SM VCSH BKN050
     FM010200 00000KT 3SM BR FEW060
      TEMPO 0103/0106 1/2SM FG VV003
     FM010600 VRB02KT 1SM BR VV004
     FM011300 07009KT P6SM SCT040 BKN100=

USA.gov is the U.S. government's official web portal to all federal, state and local government web resources and services.